Aérodrome :
LOGIN :

S'inscrire | Disclaimer

   EN    FR    IT 

 










Légende :    VFR   VFR Marginal   IFR   IFR Intensif   IFR Très Intensif
Visi : 
Plafond : 
>= 8 km
>= 3000ft
5 à 8 km
1000 à 3000 ft
1500m à 5 km
500 à 1000 ft
800 à 1500m
200 à 500 ft
< 800m
< 200 ft
Symboles :   Orages  Brouillard  Fortes neiges  Fortes précipitations  Vent > 20 kt
SIGMETs :   Divers  Orages  Givrage  Turbulence  Onde Orograph.  Cendres Volcan.







- Altitude de l'aérodrome : 1300 ft
- Code IATA : LIG
- Voir les cartes d'approche


LFBL - Limoges

DERNIER METAR :
  • 241000Z AUTO 32005KT 230V020 9999 SCT030 19/11 Q1022 NOSIG

METARs EXPIRÉS :
  • 240930Z AUTO VRB02KT 9999 FEW029 19/11 Q1022 NOSIG
  • 240900Z AUTO VRB03KT 9999 SCT026 18/12 Q1022 NOSIG
  • 240830Z AUTO 31005KT 280V010 9999 SCT023 18/11 Q1023 NOSIG
  • 240800Z AUTO 30004KT 230V030 9999 FEW022 17/11 Q1023 NOSIG
  • 240730Z AUTO 32005KT 270V010 CAVOK 16/11 Q1023 NOSIG

TAF TAF LFBL
Valide du 23 à 18h jusqu'au 24 à 18h UTC


231700Z 2318/2418 27007KT 9999 BKN025
ATIS : +33 5 55 48 40 37
Pas de NOTAMs connus pour ce terrain.



MET'MAP, la Météo Aéronautique d'un coup d'oeil ! - Copyright ORBIFLY Décembre 2007 - Disclaimer

ORBIFLY MET'MAP TEAM :

Programmation & Développement : Alexandra Zaïnal
Conception & Développement : Baudouin d'Aumeries
Co-Programmation & Développement : Marc-Olivier Méhu
Soutien technique & logistique : Manuel Goepfert

Contact : metmap@orbifly.com




SOURCES & CREDITS :

   NOAA